UNEE/KEJ METAR and TAF weather

Enter ICAO airport designator
Station Type Date Time Source
UNEE METAR 2020/09/26 10:30 UTC NOAA

UNEE 261030Z 30003MPS 9999 OVC019 06/04 Q1023 R23/190055 NOSIG RMK QFE744


Station Type Date Time Source
UNEE Decoded METAR 2020/09/26 10:30 UTC NOAA

Kemerovo, Russia (UNEE) 55-19-48N 086-04-48E
Sep 26, 2020 - 06:30 AM EDT / 2020.09.26 1030 UTC
Wind: from the WNW (300 degrees) at 7 MPH (6 KT):0
Visibility: greater than 7 mile(s):0
Sky conditions: overcast
Temperature: 42 F (6 C)
Dew Point: 39 F (4 C)
Relative Humidity: 86%
Pressure (altimeter): 30.21 in. Hg (1023 hPa)
ob: UNEE 261030Z 30003MPS 9999 OVC019 06/04 Q1023 R23/190055 NOSIG RMK QFE744
cycle: 10

Station Type Date Time Source
UNEE TAF 2020/09/26 09:21 UTC NOAA

TAF UNEE 260800Z 2609/2709 33003G08MPS 6000 BKN020CB
TEMPO 2609/2615 -SHRA SCT007 BKN017CB

Example: see airport list